Jackson, WI

1:21 PM CDT on September 28, 2016 (GMT -0500)
Village of Jackson | | Change Station

Elev 892 ft 43.32 °N, 88.17 °W | Updated 10 minutes ago

Overcast
Overcast
58.1 °F
Feels Like 58.1 °F
N
10.0
Wind Variable Wind from NE
Gusts 15.0 mph

Today
High -- | Low -- °F
--% Chance of Precip.
Yesterday
High -- | Low -- °F
Precip. -- in
Pressure 29.99 in
Visibility 10.0 miles
Clouds Mostly Cloudy 2200 ft
Mostly Cloudy 4000 ft
Overcast 9000 ft
Dew Point 50 °F
Humidity 75%
Rainfall 0.05 in
Snow Depth Not available.
6:47 AM 6:38 PM
Waning Crescent, 5% visible
METAR KETB 281815Z AUTO 04011G17KT 10SM BKN022 BKN040 OVC090 15/09 A2999 RMK AO2
Pressure 29.99 in
Visibility 10.0 miles
Clouds Mostly Cloudy 2200 ft
Mostly Cloudy 4000 ft
Overcast 9000 ft
Dew Point 50 °F
Humidity 75%
Rainfall 0.05 in
Snow Depth Not available.
6:47 AM 6:38 PM
Waning Crescent, 5% visible
METAR KETB 281815Z AUTO 04011G17KT 10SM BKN022 BKN040 OVC090 15/09 A2999 RMK AO2

10-Day Weather Forecast

Almanac

Astronomy

Sep. 28, 2016 Rise Set
Actual Time
Civil Twilight
Nautical Twilight
Astronomical Twilight
Moon
Length of Visible Light
Length of Day
Tomorrow will be .
, % of the Moon is Illuminated

Today's Extremes

State Highs State Lows

Community

WunderPhotos

Upload Photos

1,942,297 photos uploaded!

WunderBlog® & News

Nearby

Air Quality

  Air Quality AQ Index Pollutant
Not available.

Snow Depth

Station Depth Elevation

Earthquake Activity

City Distance Mag. Time & Date
Minimum magnitude displayed is 2.5.

Coastal Water Temperatures

Place Temperature

Stations

Nearby Weather Stations

Station Location Temp. Windchill Dew Point Humidity Wind Precip. Elev Updated Type
                   

Watches & Warnings

There are currently no watches in effect.